Terminal Aerodrome Forecast
Issued by NWS Cleveland, OH

Home | Current Version | Previous Version | Graphics & Text | Print | Product List | Glossary On
Versions: 1 2 3 4 5 6 7 8 9 10 11 12 13 14 15 16 17 18 19 20 21 22 23 24
000
FTUS41 KCLE 272100 AAA
TAFYNG
TAF AMD
KYNG 272127Z 2721/2818 33012KT 1 1/2SM -SN BKN015 OVC030
      TEMPO 2722/2724 3SM -SN SCT015
     FM280000 33011KT 6SM -SN OVC030
     FM280500 33010KT P6SM OVC035
     FM281700 33010KT P6SM SCT035=

USA.gov is the U.S. government's official web portal to all federal, state and local government web resources and services.